Time;durP1;ratioP1;P1;durP2;ratioP2;P2;SDS_P1;SDS_P2;PMS_P1;PMS_P2;Temp;Humidity;BMP_temperature;BMP_pressure;BME280_temperature;BME280_humidity;BME280_pressure;Samples;Min_cycle;Max_cycle;Signal;HPM_P1;HPM_P2
2023/01/01 00:00:38;;;;;;;17.25;8.45;;;12.30;99.90;;;;;;5000769;28;20045;-82
2023/01/01 00:03:03;;;;;;;25.27;9.63;;;12.30;99.90;;;;;;5019444;28;20034;-81
2023/01/01 00:05:29;;;;;;;16.55;10.02;;;12.30;99.90;;;;;;5021536;28;20045;-82
2023/01/01 00:07:54;;;;;;;16.52;9.35;;;12.30;99.90;;;;;;5003317;28;20045;-81
2023/01/01 00:10:29;;;;;;;29.63;11.75;;;12.30;99.90;;;;;;5014071;28;20882;-80
2023/01/01 00:12:58;;;;;;;21.55;9.93;;;12.30;99.90;;;;;;5001321;28;20134;-82
2023/01/01 00:15:25;;;;;;;16.33;9.90;;;12.30;99.90;;;;;;5001616;28;20081;-81
2023/01/01 00:17:51;;;;;;;13.23;9.98;;;12.30;99.90;;;;;;5006296;28;20074;-81
2023/01/01 00:20:17;;;;;;;18.77;8.75;;;12.30;99.90;;;;;;5003093;28;20460;-81
2023/01/01 00:22:43;;;;;;;19.45;8.73;;;12.30;99.90;;;;;;5002147;28;20115;-81
2023/01/01 00:25:10;;;;;;;19.65;10.43;;;12.30;99.90;;;;;;5002535;28;20396;-80
2023/01/01 00:27:36;;;;;;;21.10;9.07;;;12.40;99.90;;;;;;5005457;28;20050;-80
2023/01/01 00:30:02;;;;;;;17.60;11.23;;;12.40;99.90;;;;;;5001670;28;20401;-81
2023/01/01 00:32:28;;;;;;;15.48;10.93;;;12.40;99.90;;;;;;5001500;28;20056;-81
2023/01/01 00:34:54;;;;;;;15.10;11.50;;;12.40;99.90;;;;;;5002072;28;20042;-82
2023/01/01 00:37:19;;;;;;;30.20;14.77;;;12.40;99.90;;;;;;5006444;28;20094;-82
2023/01/01 00:39:45;;;;;;;30.20;14.65;;;12.40;99.90;;;;;;5003077;28;20450;-78
2023/01/01 00:42:10;;;;;;;18.42;14.55;;;12.40;99.90;;;;;;5002012;28;20125;-78
2023/01/01 00:44:36;;;;;;;34.60;16.73;;;12.40;99.90;;;;;;5002089;28;20391;-79
2023/01/01 00:47:01;;;;;;;34.25;15.32;;;12.40;99.90;;;;;;5002468;28;20046;-79
2023/01/01 00:49:27;;;;;;;25.48;15.85;;;12.40;99.90;;;;;;5027162;28;20054;-80
2023/01/01 00:51:56;;;;;;;19.00;12.85;;;12.40;99.90;;;;;;5019483;28;20061;-81
2023/01/01 00:54:21;;;;;;;20.02;11.85;;;12.40;99.90;;;;;;4991135;28;20050;-80
2023/01/01 00:56:47;;;;;;;16.70;9.23;;;12.40;99.90;;;;;;5004630;28;20046;-79
2023/01/01 00:59:12;;;;;;;22.35;8.52;;;12.50;99.90;;;;;;5004132;28;20046;-79
2023/01/01 01:01:39;;;;;;;16.83;9.40;;;12.40;99.90;;;;;;5008981;28;20601;-78
2023/01/01 01:04:08;;;;;;;21.33;8.57;;;12.40;99.90;;;;;;5002274;28;20729;-79
2023/01/01 01:06:34;;;;;;;13.90;7.78;;;12.40;99.90;;;;;;5001991;28;20071;-78
2023/01/01 01:08:59;;;;;;;17.50;6.20;;;12.40;99.90;;;;;;5001710;28;20046;-79
2023/01/01 01:11:25;;;;;;;21.85;6.30;;;12.40;99.90;;;;;;5001537;28;20492;-78
2023/01/01 01:13:52;;;;;;;9.63;4.45;;;12.40;99.90;;;;;;5000891;28;20102;-79
2023/01/01 01:16:25;;;;;;;13.20;5.97;;;12.40;99.90;;;;;;5017023;28;20052;-78
2023/01/01 01:18:51;;;;;;;;;;;12.40;99.90;;;;;;5021764;28;20048;-78
2023/01/01 01:21:18;;;;;;;10.65;4.47;;;12.30;99.90;;;;;;5022128;28;20000;-78
2023/01/01 01:23:44;;;;;;;9.40;5.07;;;12.30;99.90;;;;;;5001998;28;20121;-78
2023/01/01 01:26:14;;;;;;;17.92;5.45;;;12.30;99.90;;;;;;5001427;28;20167;-78
2023/01/01 01:28:40;;;;;;;6.47;3.53;;;12.20;99.90;;;;;;5000972;28;20057;-78
2023/01/01 01:31:05;;;;;;;8.68;4.43;;;12.20;99.90;;;;;;5001916;28;20049;-79
2023/01/01 01:33:31;;;;;;;10.98;5.43;;;12.10;99.90;;;;;;5001535;28;20447;-79
2023/01/01 01:35:57;;;;;;;17.20;5.82;;;12.00;99.90;;;;;;5001825;28;20033;-78
2023/01/01 01:38:23;;;;;;;5.60;4.13;;;12.00;99.90;;;;;;5019077;28;20092;-77
2023/01/01 01:40:48;;;;;;;12.05;4.65;;;12.00;99.90;;;;;;5022652;28;20040;-79
2023/01/01 01:43:24;;;;;;;17.10;4.70;;;11.90;99.90;;;;;;5001987;28;20038;-78
2023/01/01 01:45:59;;;;;;;11.55;4.80;;;11.80;99.90;;;;;;5001089;28;20052;-78
2023/01/01 01:48:25;;;;;;;16.13;5.13;;;11.80;99.90;;;;;;5000032;28;20037;-78
2023/01/01 01:50:52;;;;;;;10.07;5.03;;;11.80;99.90;;;;;;5001403;28;20083;-79
2023/01/01 01:53:26;;;;;;;5.63;3.60;;;11.80;99.90;;;;;;5001831;28;20042;-78
2023/01/01 01:55:58;;;;;;;10.52;4.32;;;11.80;99.90;;;;;;5001241;28;20054;-78
2023/01/01 01:58:26;;;;;;;13.63;5.55;;;11.70;99.90;;;;;;5000231;28;20046;-78
2023/01/01 02:00:53;;;;;;;10.13;4.15;;;11.70;99.90;;;;;;5001812;28;20049;-79
2023/01/01 02:03:27;;;;;;;7.20;3.72;;;11.70;99.90;;;;;;5000223;28;20046;-79
2023/01/01 02:05:53;;;;;;;20.95;5.07;;;11.70;99.90;;;;;;5001363;28;20045;-78
2023/01/01 02:08:20;;;;;;;8.82;5.15;;;11.70;99.90;;;;;;5001204;28;20055;-79
2023/01/01 02:10:46;;;;;;;6.43;3.90;;;11.60;99.90;;;;;;5001498;28;20038;-79
2023/01/01 02:13:12;;;;;;;9.60;5.55;;;11.70;99.90;;;;;;5000515;28;20034;-78
2023/01/01 02:15:50;;;;;;;13.90;5.75;;;11.60;99.90;;;;;;5003256;28;20037;-79
2023/01/01 02:18:22;;;;;;;9.90;5.05;;;11.60;99.90;;;;;;5035016;28;20121;-78
2023/01/01 02:21:09;;;;;;;19.55;4.35;;;11.60;99.90;;;;;;5008339;28;20848;-78
2023/01/01 02:23:54;;;;;;;14.98;3.67;;;11.60;99.90;;;;;;5002939;28;20042;-78
2023/01/01 02:26:50;;;;;;;4.00;3.50;;;11.60;99.90;;;;;;5004813;28;20118;-79
2023/01/01 02:29:47;;;;;;;9.93;3.67;;;11.60;99.90;;;;;;5002750;28;20057;-78
2023/01/01 02:32:38;;;;;;;13.88;3.95;;;11.50;99.90;;;;;;5005435;28;20060;-78
2023/01/01 02:37:59;;;;;;;9.70;3.72;;;11.50;99.90;;;;;;5004438;28;20501;-79
2023/01/01 02:40:26;;;;;;;7.78;3.97;;;11.40;99.90;;;;;;5004267;28;20030;-79
2023/01/01 02:42:54;;;;;;;12.25;3.92;;;11.50;99.90;;;;;;5002830;28;20050;-78
2023/01/01 02:45:21;;;;;;;9.38;3.20;;;11.40;99.90;;;;;;5003242;28;20488;-78
2023/01/01 02:47:46;;;;;;;8.52;4.13;;;11.40;99.90;;;;;;5004489;28;20046;-78
2023/01/01 02:50:21;;;;;;;11.02;3.88;;;11.50;99.90;;;;;;5003764;28;20504;-79
2023/01/01 02:55:42;;;;;;;9.65;4.30;;;11.50;99.90;;;;;;4983186;23;20462;-78
2023/01/01 03:01:28;;;;;;;10.82;4.18;;;11.50;99.90;;;;;;4984260;28;20046;-78
2023/01/01 03:04:10;;;;;;;7.15;3.55;;;11.50;99.90;;;;;;4984669;28;20056;-77
2023/01/01 03:06:50;;;;;;;12.40;4.13;;;11.50;99.90;;;;;;4984530;28;20046;-78
2023/01/01 03:09:39;;;;;;;5.75;3.33;;;11.50;99.90;;;;;;4985136;28;20155;-78
2023/01/01 03:12:16;;;;;;;6.50;3.20;;;11.50;99.90;;;;;;4984501;28;20058;-78
2023/01/01 03:15:00;;;;;;;4.03;2.50;;;11.50;99.90;;;;;;4983368;28;20938;-78
2023/01/01 03:17:34;;;;;;;5.55;3.22;;;11.50;99.90;;;;;;4984872;28;20051;-78
2023/01/01 03:20:05;;;;;;;7.20;4.72;;;11.40;99.90;;;;;;4983919;28;20081;-78
2023/01/01 03:22:34;;;;;;;22.30;4.85;;;11.40;99.90;;;;;;4984186;28;20480;-78
2023/01/01 03:25:06;;;;;;;8.30;2.80;;;11.40;99.90;;;;;;4983235;28;20054;-78
2023/01/01 03:27:45;;;;;;;8.10;3.70;;;11.40;99.90;;;;;;4983813;28;20042;-78
2023/01/01 03:30:13;;;;;;;16.20;5.15;;;11.40;99.90;;;;;;4979809;28;20057;-78
2023/01/01 03:33:00;;;;;;;13.48;3.08;;;11.40;99.90;;;;;;4968293;28;20411;-78
2023/01/01 03:35:49;;;;;;;7.38;2.95;;;11.30;99.90;;;;;;4983630;28;20057;-78
2023/01/01 03:38:22;;;;;;;11.32;4.43;;;11.30;99.90;;;;;;4984365;28;20047;-78
2023/01/01 03:40:53;;;;;;;15.80;4.10;;;11.30;99.90;;;;;;4984522;28;20042;-78
2023/01/01 03:43:53;;;;;;;7.45;3.83;;;11.30;99.90;;;;;;4983140;28;20034;-78
2023/01/01 03:46:24;;;;;;;11.88;4.43;;;11.30;99.90;;;;;;4965630;28;20077;-78
2023/01/01 03:48:56;;;;;;;21.60;4.00;;;11.30;99.90;;;;;;4976313;28;20058;-78
2023/01/01 03:51:35;;;;;;;11.23;4.00;;;11.20;99.90;;;;;;4983896;28;20057;-78
2023/01/01 03:54:10;;;;;;;11.60;4.32;;;11.20;99.90;;;;;;4979125;28;20050;-78
2023/01/01 03:56:49;;;;;;;17.80;4.90;;;11.20;99.90;;;;;;4972443;28;20085;-78
2023/01/01 03:59:24;;;;;;;10.98;5.22;;;11.20;99.90;;;;;;4982844;28;20438;-78
2023/01/01 04:01:57;;;;;;;11.20;4.38;;;11.20;99.90;;;;;;4974992;28;20046;-78
2023/01/01 04:04:25;;;;;;;11.00;4.03;;;11.20;99.90;;;;;;4983275;28;20508;-78
2023/01/01 04:06:52;;;;;;;8.00;4.15;;;11.10;99.90;;;;;;4983496;28;20078;-78
2023/01/01 04:09:23;;;;;;;12.52;4.53;;;11.20;99.90;;;;;;4983969;28;20540;-78
2023/01/01 04:12:01;;;;;;;9.77;4.25;;;11.10;99.90;;;;;;4966329;28;20065;-78
2023/01/01 04:14:30;;;;;;;13.13;4.75;;;11.10;99.90;;;;;;4982601;28;20051;-78
2023/01/01 04:16:56;;;;;;;9.73;3.72;;;11.10;99.90;;;;;;4983460;28;20605;-78
2023/01/01 04:19:22;;;;;;;10.60;4.20;;;11.10;99.90;;;;;;4984105;28;20479;-78
2023/01/01 04:21:48;;;;;;;15.68;4.60;;;11.00;99.90;;;;;;4983234;28;20519;-78
2023/01/01 04:24:13;;;;;;;13.93;3.95;;;11.10;99.90;;;;;;4984047;28;20042;-78
2023/01/01 04:26:40;;;;;;;7.80;3.65;;;11.00;99.90;;;;;;4983377;28;20485;-77
2023/01/01 04:29:05;;;;;;;20.02;5.75;;;11.00;99.90;;;;;;4982313;28;20050;-78
2023/01/01 04:31:32;;;;;;;10.40;4.40;;;11.00;99.90;;;;;;4983599;28;20046;-78
2023/01/01 04:33:58;;;;;;;7.20;3.30;;;11.00;99.90;;;;;;4982867;28;20519;-78
2023/01/01 04:36:23;;;;;;;9.40;2.88;;;11.00;99.90;;;;;;4983201;28;20054;-77
2023/01/01 04:38:49;;;;;;;12.07;4.50;;;11.00;99.90;;;;;;4981967;28;20119;-78
2023/01/01 04:41:14;;;;;;;7.18;3.28;;;11.00;99.90;;;;;;4983600;28;20554;-77
2023/01/01 04:43:40;;;;;;;8.65;4.55;;;11.00;99.90;;;;;;4982403;28;20400;-78
2023/01/01 04:46:05;;;;;;;13.73;4.35;;;11.00;99.90;;;;;;4965598;28;20042;-78
2023/01/01 04:48:33;;;;;;;15.52;3.38;;;11.00;99.90;;;;;;4983117;28;20046;-78
2023/01/01 04:51:03;;;;;;;11.65;4.07;;;11.00;99.90;;;;;;4965626;28;20070;-78
2023/01/01 04:53:31;;;;;;;21.25;4.22;;;11.00;99.90;;;;;;4982745;28;20086;-78
2023/01/01 04:56:12;;;;;;;20.42;4.53;;;11.00;99.90;;;;;;4982842;28;20131;-77
2023/01/01 04:58:40;;;;;;;17.25;5.35;;;11.00;99.90;;;;;;4981766;28;20137;-78
2023/01/01 05:01:07;;;;;;;16.15;4.38;;;11.00;99.90;;;;;;4982637;28;20121;-77
2023/01/01 05:03:33;;;;;;;11.25;4.50;;;10.90;99.90;;;;;;4972878;28;20362;-77
2023/01/01 05:06:07;;;;;;;15.25;3.78;;;10.90;99.90;;;;;;4982175;28;20103;-77
2023/01/01 05:08:36;;;;;;;9.95;3.17;;;10.90;99.90;;;;;;4952685;28;20122;-77
2023/01/01 05:11:17;;;;;;;11.90;2.92;;;10.90;99.90;;;;;;4982511;28;20508;-78
2023/01/01 05:13:45;;;;;;;18.25;5.13;;;10.90;99.90;;;;;;4981315;28;20488;-78
2023/01/01 05:16:19;;;;;;;13.95;4.95;;;10.90;99.90;;;;;;4981904;28;20044;-77
2023/01/01 05:18:45;;;;;;;10.32;3.80;;;10.90;99.90;;;;;;4983239;28;20064;-77
2023/01/01 05:21:24;;;;;;;9.30;3.78;;;10.90;99.90;;;;;;4982379;28;20046;-77
2023/01/01 05:23:58;;;;;;;11.98;5.18;;;10.90;99.90;;;;;;4971632;28;20046;-78
2023/01/01 05:26:27;;;;;;;9.40;3.40;;;10.90;99.90;;;;;;4981914;28;20485;-78
2023/01/01 05:28:53;;;;;;;9.48;3.45;;;10.90;99.90;;;;;;4980820;28;20397;-77
2023/01/01 05:31:21;;;;;;;8.07;2.88;;;10.90;99.90;;;;;;4972029;28;20051;-77
2023/01/01 05:33:48;;;;;;;15.32;4.47;;;10.90;99.90;;;;;;4982666;28;20038;-77
2023/01/01 05:36:22;;;;;;;9.77;3.65;;;10.90;99.90;;;;;;4982372;28;20046;-77
2023/01/01 05:38:48;;;;;;;12.00;3.63;;;10.80;99.90;;;;;;4982832;28;20043;-77
2023/01/01 05:41:15;;;;;;;8.20;2.97;;;10.90;99.90;;;;;;4981508;28;20038;-77
2023/01/01 05:43:41;;;;;;;8.20;2.53;;;10.80;99.90;;;;;;4980703;28;20062;-77
2023/01/01 05:46:12;;;;;;;11.68;3.17;;;10.70;99.90;;;;;;4982372;28;20122;-77
2023/01/01 05:48:38;;;;;;;26.52;4.07;;;10.80;99.90;;;;;;4982782;28;20050;-78
2023/01/01 05:51:06;;;;;;;10.95;3.55;;;10.70;99.90;;;;;;4985691;28;20046;-77
2023/01/01 05:53:33;;;;;;;13.13;2.80;;;10.70;99.90;;;;;;4985340;28;20304;-77
2023/01/01 05:55:59;;;;;;;14.02;3.17;;;10.70;99.90;;;;;;4985335;28;20057;-77
2023/01/01 05:58:25;;;;;;;8.43;2.75;;;10.70;99.90;;;;;;4984722;28;20054;-77
2023/01/01 06:00:51;;;;;;;7.47;3.15;;;10.60;99.90;;;;;;4968928;28;20053;-78
2023/01/01 06:03:17;;;;;;;6.85;1.95;;;10.60;99.90;;;;;;4985818;28;20038;-77
2023/01/01 06:05:42;;;;;;;6.53;2.80;;;10.60;99.90;;;;;;4985819;28;20043;-77
2023/01/01 06:08:08;;;;;;;8.27;3.08;;;10.60;99.90;;;;;;4984737;28;20103;-77
2023/01/01 06:10:34;;;;;;;13.32;4.10;;;10.50;99.90;;;;;;4985338;28;20046;-77
2023/01/01 06:12:59;;;;;;;13.65;3.25;;;10.50;99.90;;;;;;4984436;28;20043;-77
2023/01/01 06:15:26;;;;;;;18.70;4.53;;;10.50;99.90;;;;;;4984927;28;20518;-77
2023/01/01 06:17:52;;;;;;;21.92;4.00;;;10.50;99.90;;;;;;4968014;28;20496;-78
2023/01/01 06:20:17;;;;;;;7.50;3.55;;;10.50;99.90;;;;;;4968588;28;20039;-78
2023/01/01 06:22:43;;;;;;;4.00;2.30;;;10.50;99.90;;;;;;4985128;28;20106;-77
2023/01/01 06:25:09;;;;;;;15.15;2.92;;;10.50;99.90;;;;;;4984829;28;20264;-77
2023/01/01 06:27:35;;;;;;;14.07;5.03;;;10.50;99.90;;;;;;4983933;28;20042;-78
2023/01/01 06:30:05;;;;;;;8.88;2.88;;;10.50;99.90;;;;;;4984478;28;20565;-77
2023/01/01 06:32:31;;;;;;;9.30;3.72;;;10.50;99.90;;;;;;4970644;28;20636;-78
2023/01/01 06:34:57;;;;;;;4.88;2.70;;;10.50;99.90;;;;;;4984666;28;20049;-77
2023/01/01 06:37:22;;;;;;;13.52;3.47;;;10.50;99.90;;;;;;4985011;28;20131;-77
2023/01/01 06:39:48;;;;;;;8.35;3.83;;;10.50;99.90;;;;;;4967931;28;20759;-77
2023/01/01 06:42:14;;;;;;;9.90;3.88;;;10.40;99.90;;;;;;4985671;28;20053;-77
2023/01/01 06:44:40;;;;;;;11.90;3.53;;;10.50;99.90;;;;;;4983953;28;20042;-77
2023/01/01 06:47:06;;;;;;;10.48;3.30;;;10.40;99.90;;;;;;4984547;28;20073;-77
2023/01/01 06:49:31;;;;;;;9.63;3.65;;;10.40;99.90;;;;;;4984812;28;20489;-77
2023/01/01 06:51:57;;;;;;;12.52;3.17;;;10.40;99.90;;;;;;4984458;28;20081;-77
2023/01/01 06:54:23;;;;;;;13.30;4.18;;;10.40;99.90;;;;;;4967340;28;20054;-78
2023/01/01 06:56:48;;;;;;;15.43;2.97;;;10.40;99.90;;;;;;4966930;28;20134;-77
2023/01/01 06:59:16;;;;;;;11.20;4.72;;;10.40;99.90;;;;;;4984662;28;20109;-77
2023/01/01 07:01:42;;;;;;;11.15;3.63;;;10.40;99.90;;;;;;4983814;28;20042;-78
2023/01/01 07:04:11;;;;;;;15.82;3.97;;;10.30;99.90;;;;;;4984504;28;20054;-77
2023/01/01 07:06:37;;;;;;;10.38;3.65;;;10.30;99.90;;;;;;4967586;28;20080;-77
2023/01/01 07:09:04;;;;;;;19.52;3.35;;;10.30;99.90;;;;;;4984621;28;20049;-78
2023/01/01 07:11:31;;;;;;;9.20;3.22;;;10.30;99.90;;;;;;4984853;28;20043;-77
2023/01/01 07:13:57;;;;;;;8.90;4.25;;;10.30;99.90;;;;;;4983569;28;20055;-77
2023/01/01 07:16:23;;;;;;;6.43;3.28;;;10.30;99.90;;;;;;4966856;28;20050;-77
2023/01/01 07:18:49;;;;;;;10.15;3.22;;;10.30;99.90;;;;;;4966816;28;20484;-77
2023/01/01 07:21:28;;;;;;;9.55;3.20;;;10.20;99.90;;;;;;4967499;28;20034;-77
2023/01/01 07:23:55;;;;;;;27.20;5.43;;;10.20;99.90;;;;;;4972158;28;20408;-77
2023/01/01 07:26:23;;;;;;;14.07;3.42;;;10.30;99.90;;;;;;4983973;28;20030;-77
2023/01/01 07:28:48;;;;;;;11.93;3.58;;;10.20;99.90;;;;;;4983603;28;20054;-77
2023/01/01 07:31:14;;;;;;;13.60;3.90;;;10.20;99.90;;;;;;4984757;28;20046;-77
2023/01/01 07:33:39;;;;;;;7.75;4.18;;;10.20;99.90;;;;;;4983827;28;20404;-77
2023/01/01 07:36:05;;;;;;;24.80;5.03;;;10.20;99.90;;;;;;4966752;28;20396;-77
2023/01/01 07:38:31;;;;;;;7.07;3.17;;;10.10;99.90;;;;;;4983911;28;20110;-77
2023/01/01 07:40:57;;;;;;;7.88;3.58;;;10.10;99.90;;;;;;4983597;28;20520;-78
2023/01/01 07:43:22;;;;;;;19.85;4.07;;;10.10;99.90;;;;;;4983233;28;20045;-78
2023/01/01 07:45:48;;;;;;;21.33;5.25;;;10.20;99.90;;;;;;4984418;28;20041;-77
2023/01/01 07:48:14;;;;;;;5.97;2.88;;;10.10;99.90;;;;;;4966375;28;20145;-77
2023/01/01 07:50:41;;;;;;;16.00;4.00;;;10.10;99.90;;;;;;4984536;28;20192;-77
2023/01/01 07:53:07;;;;;;;17.00;5.55;;;10.10;99.90;;;;;;4966064;28;20397;-77
2023/01/01 07:55:33;;;;;;;16.15;6.03;;;10.10;99.90;;;;;;4978256;28;20069;-77
2023/01/01 07:57:59;;;;;;;26.05;4.50;;;10.10;99.90;;;;;;4981007;28;20058;-78
2023/01/01 08:00:25;;;;;;;15.30;4.18;;;10.10;99.90;;;;;;4982445;28;20061;-77
2023/01/01 08:02:50;;;;;;;17.38;4.65;;;10.10;99.90;;;;;;4982960;28;20432;-78
2023/01/01 08:05:16;;;;;;;10.77;4.32;;;10.10;99.90;;;;;;4984390;28;20042;-77
2023/01/01 08:07:46;;;;;;;16.75;3.40;;;10.10;99.90;;;;;;4983753;28;20518;-77
2023/01/01 08:10:13;;;;;;;17.65;6.75;;;10.10;99.90;;;;;;4983540;28;20078;-77
2023/01/01 08:12:38;;;;;;;9.73;4.10;;;10.10;99.90;;;;;;4981578;28;20604;-77
2023/01/01 08:15:05;;;;;;;17.50;6.03;;;10.10;99.90;;;;;;4983298;28;20566;-77
2023/01/01 08:17:30;;;;;;;11.63;5.68;;;10.10;99.90;;;;;;4982221;28;20433;-77
2023/01/01 08:19:56;;;;;;;19.48;5.32;;;10.10;99.90;;;;;;4983234;28;20135;-77
2023/01/01 08:22:21;;;;;;;18.45;5.03;;;10.10;99.90;;;;;;4972520;28;20053;-77
2023/01/01 08:24:47;;;;;;;21.33;4.85;;;10.10;99.90;;;;;;4983553;28;20039;-77
2023/01/01 08:27:14;;;;;;;10.55;4.15;;;10.10;99.90;;;;;;4981999;28;20493;-77
2023/01/01 08:29:40;;;;;;;7.95;3.83;;;10.10;99.90;;;;;;4982538;28;20038;-77
2023/01/01 08:32:06;;;;;;;13.75;4.65;;;10.10;99.90;;;;;;4983174;28;20054;-77
2023/01/01 08:34:31;;;;;;;17.52;5.45;;;10.10;99.90;;;;;;4965520;28;20595;-77
2023/01/01 08:36:58;;;;;;;14.73;7.30;;;10.10;99.90;;;;;;4982820;28;20065;-77
2023/01/01 08:39:24;;;;;;;24.00;5.50;;;10.10;99.90;;;;;;4982399;28;20042;-78
2023/01/01 08:41:49;;;;;;;13.18;4.53;;;10.10;99.90;;;;;;4982496;28;20046;-78
2023/01/01 08:44:15;;;;;;;14.48;4.38;;;10.10;99.90;;;;;;4982146;28;20044;-77
2023/01/01 08:46:40;;;;;;;9.88;4.25;;;10.10;99.90;;;;;;5006562;28;20050;-78
2023/01/01 08:49:06;;;;;;;9.77;3.70;;;10.00;99.90;;;;;;5024344;28;20050;-78
2023/01/01 08:51:32;;;;;;;14.98;5.60;;;10.00;99.90;;;;;;5016788;28;20045;-78
2023/01/01 08:53:57;;;;;;;8.88;3.65;;;10.00;99.90;;;;;;4986901;28;20433;-77
2023/01/01 08:56:23;;;;;;;29.02;4.90;;;10.10;99.90;;;;;;5010775;28;20069;-78
2023/01/01 08:58:49;;;;;;;16.55;4.93;;;10.00;99.90;;;;;;4981983;28;20118;-78
2023/01/01 09:01:14;;;;;;;19.77;4.13;;;10.00;99.90;;;;;;4983224;28;20535;-78
2023/01/01 09:03:40;;;;;;;9.93;3.15;;;10.00;99.90;;;;;;4982478;28;20034;-77
2023/01/01 09:06:06;;;;;;;12.13;5.20;;;10.00;99.90;;;;;;4971574;28;20038;-78
2023/01/01 09:08:31;;;;;;;13.25;4.88;;;10.00;99.90;;;;;;5011704;28;20042;-78
2023/01/01 09:10:59;;;;;;;12.40;4.25;;;10.00;99.90;;;;;;4982186;28;20134;-78
2023/01/01 09:13:25;;;;;;;10.30;5.30;;;10.00;99.90;;;;;;4981478;28;20046;-78
2023/01/01 09:15:50;;;;;;;10.38;4.18;;;10.00;99.90;;;;;;4986232;28;20389;-78
2023/01/01 09:18:16;;;;;;;15.50;4.90;;;10.00;99.90;;;;;;5027059;28;20503;-77
2023/01/01 09:20:42;;;;;;;9.55;3.85;;;10.00;99.90;;;;;;4982675;28;20133;-78
2023/01/01 09:23:09;;;;;;;18.23;3.45;;;10.00;99.90;;;;;;4990808;28;20034;-77
2023/01/01 09:25:35;;;;;;;19.25;5.95;;;10.00;99.90;;;;;;5026659;28;20125;-78
2023/01/01 09:28:10;;;;;;;12.98;4.05;;;10.00;99.90;;;;;;4985974;28;20121;-78
2023/01/01 09:30:35;;;;;;;28.60;5.53;;;10.00;99.90;;;;;;4998184;28;20682;-78
2023/01/01 09:33:02;;;;;;;13.27;4.85;;;10.00;99.90;;;;;;5014472;28;20150;-77
2023/01/01 09:35:28;;;;;;;12.07;4.10;;;9.90;99.90;;;;;;5009740;28;20040;-78
2023/01/01 09:37:54;;;;;;;17.27;4.97;;;10.00;99.90;;;;;;5009385;28;20039;-78
2023/01/01 09:40:56;;;;;;;15.18;4.47;;;10.00;99.90;;;;;;4985624;28;20035;-78
2023/01/01 09:43:51;;;;;;;22.60;6.32;;;10.00;99.90;;;;;;4985238;28;20042;-78
2023/01/01 09:46:17;;;;;;;9.68;4.10;;;10.00;99.90;;;;;;5009381;28;20447;-77
2023/01/01 09:49:00;;;;;;;20.77;3.83;;;10.00;99.90;;;;;;5023058;28;20065;-78
2023/01/01 09:51:29;;;;;;;11.90;3.90;;;10.00;99.90;;;;;;5049745;28;20043;-78
2023/01/01 09:54:06;;;;;;;9.90;3.20;;;10.00;99.90;;;;;;5016846;28;20575;-78
2023/01/01 09:56:34;;;;;;;15.95;4.90;;;10.00;99.90;;;;;;4982528;28;20616;-78
2023/01/01 09:59:00;;;;;;;34.17;6.05;;;10.00;99.90;;;;;;4982499;28;20035;-78
2023/01/01 10:01:44;;;;;;;13.25;4.95;;;10.00;99.90;;;;;;4968161;28;20054;-78
2023/01/01 10:04:21;;;;;;;13.45;3.53;;;10.10;99.90;;;;;;4974489;28;20074;-78
2023/01/01 10:07:10;;;;;;;14.35;4.07;;;10.10;99.90;;;;;;4986087;28;20047;-78
2023/01/01 10:10:05;;;;;;;20.75;6.15;;;10.10;99.90;;;;;;4981584;28;20482;-78
2023/01/01 10:12:44;;;;;;;15.30;4.10;;;10.10;99.90;;;;;;4984406;28;20061;-78
2023/01/01 10:15:22;;;;;;;17.13;5.03;;;10.10;99.90;;;;;;4985156;28;20048;-78
2023/01/01 10:17:54;;;;;;;20.25;3.78;;;10.20;99.90;;;;;;4967946;28;20065;-78
2023/01/01 10:20:37;;;;;;;12.88;4.10;;;10.20;99.90;;;;;;4968431;28;20073;-79
2023/01/01 10:23:14;;;;;;;15.85;3.72;;;10.20;99.90;;;;;;4984686;28;20073;-79
2023/01/01 10:25:41;;;;;;;17.75;5.32;;;10.20;99.90;;;;;;5031992;28;20510;-78
2023/01/01 10:28:18;;;;;;;22.63;4.47;;;10.20;99.90;;;;;;4986983;28;20043;-78
2023/01/01 10:30:43;;;;;;;10.82;3.70;;;10.20;99.90;;;;;;4985168;28;20057;-78
2023/01/01 10:33:13;;;;;;;10.13;4.38;;;10.20;99.90;;;;;;4978094;28;20492;-78
2023/01/01 10:35:46;;;;;;;12.93;4.22;;;10.20;99.90;;;;;;5030718;28;20099;-78
2023/01/01 10:38:25;;;;;;;7.72;3.78;;;10.20;99.90;;;;;;4977732;28;20047;-78
2023/01/01 10:40:55;;;;;;;16.50;3.90;;;10.30;99.90;;;;;;4969591;28;20065;-78
2023/01/01 10:43:20;;;;;;;10.70;3.53;;;10.20;99.90;;;;;;4984193;28;20042;-78
2023/01/01 10:45:52;;;;;;;10.30;3.60;;;10.30;99.90;;;;;;4984975;28;20681;-78
2023/01/01 10:48:20;;;;;;;12.50;4.05;;;10.30;99.90;;;;;;4984832;28;20030;-78
2023/01/01 10:50:56;;;;;;;8.68;3.45;;;10.20;99.90;;;;;;4984166;28;20046;-78
2023/01/01 10:53:48;;;;;;;12.23;5.25;;;10.20;99.90;;;;;;4966831;28;20144;-78
2023/01/01 10:56:19;;;;;;;10.25;3.88;;;10.20;99.90;;;;;;4952485;28;20053;-78
2023/01/01 10:58:57;;;;;;;10.30;3.50;;;10.20;99.90;;;;;;4966657;28;20425;-78
2023/01/01 11:01:27;;;;;;;14.48;3.50;;;10.30;99.90;;;;;;4966863;28;20047;-78
2023/01/01 11:04:18;;;;;;;21.98;5.68;;;10.20;99.90;;;;;;5030400;28;20494;-78
2023/01/01 11:06:48;;;;;;;10.20;3.60;;;10.20;99.90;;;;;;5019015;28;20046;-79
2023/01/01 11:09:35;;;;;;;14.00;3.45;;;10.20;99.90;;;;;;4972520;28;20600;-78
2023/01/01 11:12:04;;;;;;;10.38;3.33;;;10.20;99.90;;;;;;4982120;28;20050;-78
2023/01/01 11:14:52;;;;;;;11.02;3.58;;;10.20;99.90;;;;;;4985263;28;20042;-79
2023/01/01 11:17:24;;;;;;;7.93;2.03;;;10.20;99.90;;;;;;4989844;28;20089;-79
2023/01/01 11:19:51;;;;;;;11.10;4.70;;;10.20;99.90;;;;;;4998601;28;20046;-77
2023/01/01 11:22:36;;;;;;;11.63;3.50;;;10.20;99.90;;;;;;4950514;28;20096;-78
2023/01/01 11:25:14;;;;;;;13.50;3.53;;;10.20;99.90;;;;;;4974630;28;20053;-78
2023/01/01 11:27:40;;;;;;;10.07;3.72;;;10.20;99.90;;;;;;4970688;28;20456;-78
2023/01/01 11:30:21;;;;;;;12.82;4.28;;;10.20;99.90;;;;;;4983026;28;20038;-77
2023/01/01 11:32:48;;;;;;;14.32;3.35;;;10.20;99.90;;;;;;4983211;28;20066;-78
2023/01/01 11:35:19;;;;;;;10.27;4.00;;;10.20;99.90;;;;;;4950109;28;20046;-78
2023/01/01 11:37:46;;;;;;;8.60;4.00;;;10.20;99.90;;;;;;4994034;28;20050;-78
2023/01/01 11:40:32;;;;;;;20.67;4.82;;;10.20;99.90;;;;;;4983021;28;20038;-79
2023/01/01 11:43:01;;;;;;;8.82;3.75;;;10.30;99.90;;;;;;4982229;28;20035;-79
2023/01/01 11:45:39;;;;;;;7.60;3.35;;;10.30;99.90;;;;;;4994041;28;20128;-79
2023/01/01 11:48:13;;;;;;;20.50;3.80;;;10.30;99.90;;;;;;4973294;28;20055;-79
2023/01/01 11:50:40;;;;;;;23.77;6.47;;;10.30;99.90;;;;;;4982181;28;20054;-79
2023/01/01 11:53:21;;;;;;;12.90;4.25;;;10.30;99.90;;;;;;4981700;28;20508;-77
2023/01/01 11:56:10;;;;;;;16.65;4.32;;;10.30;99.90;;;;;;5058476;28;20062;-77
2023/01/01 11:58:35;;;;;;;7.97;2.63;;;10.40;99.90;;;;;;4966785;28;20059;-77
2023/01/01 12:01:08;;;;;;;18.73;3.90;;;10.40;99.90;;;;;;5064016;28;20061;-76
2023/01/01 12:03:41;;;;;;;10.60;3.47;;;10.40;99.90;;;;;;4988967;28;20042;-77
2023/01/01 12:06:23;;;;;;;12.63;3.67;;;10.40;99.90;;;;;;5051122;28;20075;-77
2023/01/01 12:09:01;;;;;;;10.85;3.65;;;10.40;99.90;;;;;;4975490;28;20046;-77
2023/01/01 12:11:51;;;;;;;12.05;3.60;;;10.40;99.90;;;;;;5003898;28;20333;-77
2023/01/01 12:14:38;;;;;;;16.65;3.97;;;10.40;99.90;;;;;;4967037;28;20133;-76
2023/01/01 12:17:29;;;;;;;8.35;4.60;;;10.50;99.90;;;;;;4999734;28;20046;-76
2023/01/01 12:20:12;;;;;;;11.70;3.03;;;10.50;99.90;;;;;;4967943;28;20188;-77
2023/01/01 12:22:40;;;;;;;9.27;3.75;;;10.50;99.90;;;;;;4972611;28;20091;-76
2023/01/01 12:25:11;;;;;;;9.57;3.35;;;10.60;99.90;;;;;;5064987;28;20026;-76
2023/01/01 12:28:03;;;;;;;7.60;3.47;;;10.50;99.90;;;;;;4981589;28;20266;-77
2023/01/01 12:30:37;;;;;;;26.63;3.22;;;10.60;99.90;;;;;;4953209;28;20051;-77
2023/01/01 12:33:30;;;;;;;10.70;3.25;;;10.60;99.90;;;;;;4982203;28;20042;-78
2023/01/01 12:36:14;;;;;;;;;;;10.60;99.90;;;;;;4982815;28;20042;-78
2023/01/01 12:38:50;;;;;;;10.00;3.40;;;10.60;99.90;;;;;;4964530;28;20047;-78
2023/01/01 12:41:39;;;;;;;5.03;2.35;;;10.60;99.90;;;;;;4977875;28;20064;-78
2023/01/01 12:44:15;;;;;;;15.70;4.80;;;10.60;99.90;;;;;;4963944;28;20045;-79
2023/01/01 12:46:57;;;;;;;9.40;4.13;;;10.60;99.90;;;;;;5004577;28;20092;-78
2023/01/01 12:49:46;;;;;;;11.95;3.38;;;10.60;99.90;;;;;;5003995;28;20484;-78
2023/01/01 12:52:18;;;;;;;14.07;4.32;;;10.60;99.90;;;;;;4991478;28;20050;-79
2023/01/01 12:55:21;;;;;;;7.88;3.20;;;10.60;99.90;;;;;;4986956;28;20096;-79
2023/01/01 12:57:53;;;;;;;21.05;3.80;;;10.60;99.90;;;;;;4994006;28;20081;-78
2023/01/01 13:00:19;;;;;;;7.22;3.33;;;10.60;99.90;;;;;;4982234;28;20042;-79
2023/01/01 13:03:00;;;;;;;8.27;2.70;;;10.60;99.90;;;;;;4978770;28;20133;-79
2023/01/01 13:05:38;;;;;;;12.95;4.97;;;10.60;99.90;;;;;;4982707;28;20121;-78
2023/01/01 13:08:05;;;;;;;13.18;3.53;;;10.60;99.90;;;;;;4964434;28;20213;-78